George, Iowa
Current Conditions -  °F | °C
As of 12:55 PM on Monday 20 Oct 2014 (Local Time) from KSHL Reporting Station
Clear Clear  
Wind Chill: 66°   Ceiling: Unl
Heat Index: 66°   Visibility: 10mi
Dew Point: 39°   Wind: 9mph
Humidity: 37%   Direction: 300°WNW
Pressure: 30.06"   Gusts: 15mph
Location:  43.34°N, 96°W
Report Text: KSHL 201755Z AUTO 30008G13KT 280V340 10SM CLR 19/04 A3006 RMK AO2
Loading
Personal Weather Stations






























Interactive Weather Map
Tropical Storm Tracking
New forecast layout! Learn more

10-Day Weather Forecast

Advertisements
Track Severe Weather on mobile